sensor_id;sensor_type;location;lat;lon;timestamp;temperature;humidity
32522;DHT22;18963;51.504;5.316;2023-09-07T00:02:16;16.10;99.90
32522;DHT22;18963;51.504;5.316;2023-09-07T00:04:41;16.10;99.90
32522;DHT22;18963;51.504;5.316;2023-09-07T00:07:08;16.00;99.90
32522;DHT22;18963;51.504;5.316;2023-09-07T00:09:34;15.90;99.90
32522;DHT22;18963;51.504;5.316;2023-09-07T00:12:00;15.90;99.90
32522;DHT22;18963;51.504;5.316;2023-09-07T00:14:25;15.80;99.90
32522;DHT22;18963;51.504;5.316;2023-09-07T00:16:51;15.70;99.90
32522;DHT22;18963;51.504;5.316;2023-09-07T00:19:16;15.70;99.90
32522;DHT22;18963;51.504;5.316;2023-09-07T00:21:42;15.80;99.90
32522;DHT22;18963;51.504;5.316;2023-09-07T00:24:07;15.80;99.90
32522;DHT22;18963;51.504;5.316;2023-09-07T00:26:33;15.90;99.90
32522;DHT22;18963;51.504;5.316;2023-09-07T00:28:59;15.90;99.90
32522;DHT22;18963;51.504;5.316;2023-09-07T00:31:24;16.00;99.90
32522;DHT22;18963;51.504;5.316;2023-09-07T00:33:50;15.90;99.90
32522;DHT22;18963;51.504;5.316;2023-09-07T00:36:15;15.90;99.90
32522;DHT22;18963;51.504;5.316;2023-09-07T00:38:41;15.80;99.90
32522;DHT22;18963;51.504;5.316;2023-09-07T00:41:06;15.80;99.90
32522;DHT22;18963;51.504;5.316;2023-09-07T00:43:32;15.70;99.90
32522;DHT22;18963;51.504;5.316;2023-09-07T00:45:57;15.70;99.90
32522;DHT22;18963;51.504;5.316;2023-09-07T00:48:23;15.60;99.90
32522;DHT22;18963;51.504;5.316;2023-09-07T00:50:49;15.60;99.90
32522;DHT22;18963;51.504;5.316;2023-09-07T00:53:15;15.50;99.90
32522;DHT22;18963;51.504;5.316;2023-09-07T00:55:40;15.50;99.90
32522;DHT22;18963;51.504;5.316;2023-09-07T00:58:06;15.40;99.90
32522;DHT22;18963;51.504;5.316;2023-09-07T01:00:32;15.40;99.90
32522;DHT22;18963;51.504;5.316;2023-09-07T01:02:59;15.30;99.90
32522;DHT22;18963;51.504;5.316;2023-09-07T01:05:34;15.30;99.90
32522;DHT22;18963;51.504;5.316;2023-09-07T01:08:11;15.20;99.90
32522;DHT22;18963;51.504;5.316;2023-09-07T01:10:40;15.20;99.90
32522;DHT22;18963;51.504;5.316;2023-09-07T01:13:05;15.20;99.90
32522;DHT22;18963;51.504;5.316;2023-09-07T01:15:31;15.10;99.90
32522;DHT22;18963;51.504;5.316;2023-09-07T01:17:58;15.10;99.90
32522;DHT22;18963;51.504;5.316;2023-09-07T01:20:24;15.10;99.90
32522;DHT22;18963;51.504;5.316;2023-09-07T01:22:51;15.00;99.90
32522;DHT22;18963;51.504;5.316;2023-09-07T01:25:16;15.00;99.90
32522;DHT22;18963;51.504;5.316;2023-09-07T01:27:42;15.00;99.90
32522;DHT22;18963;51.504;5.316;2023-09-07T01:30:08;15.00;99.90
32522;DHT22;18963;51.504;5.316;2023-09-07T01:32:34;14.90;99.90
32522;DHT22;18963;51.504;5.316;2023-09-07T01:35:01;14.90;99.90
32522;DHT22;18963;51.504;5.316;2023-09-07T01:37:27;14.90;99.90
32522;DHT22;18963;51.504;5.316;2023-09-07T01:39:52;15.00;99.90
32522;DHT22;18963;51.504;5.316;2023-09-07T01:42:18;15.00;99.90
32522;DHT22;18963;51.504;5.316;2023-09-07T01:44:43;15.10;99.90
32522;DHT22;18963;51.504;5.316;2023-09-07T01:47:09;15.10;99.90
32522;DHT22;18963;51.504;5.316;2023-09-07T01:49:34;15.10;99.90
32522;DHT22;18963;51.504;5.316;2023-09-07T01:52:01;15.00;99.90
32522;DHT22;18963;51.504;5.316;2023-09-07T01:54:27;15.00;99.90
32522;DHT22;18963;51.504;5.316;2023-09-07T01:56:52;15.00;99.90
32522;DHT22;18963;51.504;5.316;2023-09-07T01:59:18;14.90;99.90
32522;DHT22;18963;51.504;5.316;2023-09-07T02:01:43;14.90;99.90
32522;DHT22;18963;51.504;5.316;2023-09-07T02:04:09;14.80;99.90
32522;DHT22;18963;51.504;5.316;2023-09-07T02:06:34;14.80;99.90
32522;DHT22;18963;51.504;5.316;2023-09-07T02:09:00;14.90;99.90
32522;DHT22;18963;51.504;5.316;2023-09-07T02:11:25;14.80;99.90
32522;DHT22;18963;51.504;5.316;2023-09-07T02:13:51;14.90;99.90
32522;DHT22;18963;51.504;5.316;2023-09-07T02:16:16;14.80;99.90
32522;DHT22;18963;51.504;5.316;2023-09-07T02:18:44;14.90;99.90
32522;DHT22;18963;51.504;5.316;2023-09-07T02:21:11;14.80;99.90
32522;DHT22;18963;51.504;5.316;2023-09-07T02:23:36;14.80;99.90
32522;DHT22;18963;51.504;5.316;2023-09-07T02:26:03;14.70;99.90
32522;DHT22;18963;51.504;5.316;2023-09-07T02:28:29;14.70;99.90
32522;DHT22;18963;51.504;5.316;2023-09-07T02:30:54;14.70;99.90
32522;DHT22;18963;51.504;5.316;2023-09-07T02:33:20;14.60;99.90
32522;DHT22;18963;51.504;5.316;2023-09-07T02:35:48;14.60;99.90
32522;DHT22;18963;51.504;5.316;2023-09-07T02:38:14;14.50;99.90
32522;DHT22;18963;51.504;5.316;2023-09-07T02:40:43;14.50;99.90
32522;DHT22;18963;51.504;5.316;2023-09-07T02:43:12;14.60;99.90
32522;DHT22;18963;51.504;5.316;2023-09-07T02:45:38;14.60;99.90
32522;DHT22;18963;51.504;5.316;2023-09-07T02:48:04;14.60;99.90
32522;DHT22;18963;51.504;5.316;2023-09-07T02:50:33;14.60;99.90
32522;DHT22;18963;51.504;5.316;2023-09-07T02:53:00;14.50;99.90
32522;DHT22;18963;51.504;5.316;2023-09-07T02:55:26;14.50;99.90
32522;DHT22;18963;51.504;5.316;2023-09-07T02:57:52;14.50;99.90
32522;DHT22;18963;51.504;5.316;2023-09-07T03:00:18;14.50;99.90
32522;DHT22;18963;51.504;5.316;2023-09-07T03:02:44;14.50;99.90
32522;DHT22;18963;51.504;5.316;2023-09-07T03:05:09;14.50;99.90
32522;DHT22;18963;51.504;5.316;2023-09-07T03:07:35;14.40;99.90
32522;DHT22;18963;51.504;5.316;2023-09-07T03:10:01;14.40;99.90
32522;DHT22;18963;51.504;5.316;2023-09-07T03:12:27;14.30;99.90
32522;DHT22;18963;51.504;5.316;2023-09-07T03:14:53;14.20;99.90
32522;DHT22;18963;51.504;5.316;2023-09-07T03:17:19;14.20;99.90
32522;DHT22;18963;51.504;5.316;2023-09-07T03:19:46;14.20;99.90
32522;DHT22;18963;51.504;5.316;2023-09-07T03:22:12;14.20;99.90
32522;DHT22;18963;51.504;5.316;2023-09-07T03:24:38;14.30;99.90
32522;DHT22;18963;51.504;5.316;2023-09-07T03:27:04;14.30;99.90
32522;DHT22;18963;51.504;5.316;2023-09-07T03:29:31;14.30;99.90
32522;DHT22;18963;51.504;5.316;2023-09-07T03:32:01;14.20;99.90
32522;DHT22;18963;51.504;5.316;2023-09-07T03:34:27;14.20;99.90
32522;DHT22;18963;51.504;5.316;2023-09-07T03:36:53;14.10;99.90
32522;DHT22;18963;51.504;5.316;2023-09-07T03:39:19;14.00;99.90
32522;DHT22;18963;51.504;5.316;2023-09-07T03:41:46;13.90;99.90
32522;DHT22;18963;51.504;5.316;2023-09-07T03:44:12;13.90;99.90
32522;DHT22;18963;51.504;5.316;2023-09-07T03:46:37;13.80;99.90
32522;DHT22;18963;51.504;5.316;2023-09-07T03:49:03;13.90;99.90
32522;DHT22;18963;51.504;5.316;2023-09-07T03:51:28;13.90;99.90
32522;DHT22;18963;51.504;5.316;2023-09-07T03:53:54;14.00;99.90
32522;DHT22;18963;51.504;5.316;2023-09-07T03:56:19;14.00;99.90
32522;DHT22;18963;51.504;5.316;2023-09-07T03:58:45;14.00;99.90
32522;DHT22;18963;51.504;5.316;2023-09-07T04:01:13;13.90;99.90
32522;DHT22;18963;51.504;5.316;2023-09-07T04:03:38;13.90;99.90
32522;DHT22;18963;51.504;5.316;2023-09-07T04:06:05;13.90;99.90
32522;DHT22;18963;51.504;5.316;2023-09-07T04:08:31;14.00;99.90
32522;DHT22;18963;51.504;5.316;2023-09-07T04:10:56;14.10;99.90
32522;DHT22;18963;51.504;5.316;2023-09-07T04:13:22;14.10;99.90
32522;DHT22;18963;51.504;5.316;2023-09-07T04:15:47;14.10;99.90
32522;DHT22;18963;51.504;5.316;2023-09-07T04:18:13;14.10;99.90
32522;DHT22;18963;51.504;5.316;2023-09-07T04:20:40;14.10;99.90
32522;DHT22;18963;51.504;5.316;2023-09-07T04:23:06;14.10;99.90
32522;DHT22;18963;51.504;5.316;2023-09-07T04:25:31;14.10;99.90
32522;DHT22;18963;51.504;5.316;2023-09-07T04:27:58;14.10;99.90
32522;DHT22;18963;51.504;5.316;2023-09-07T04:30:23;14.00;99.90
32522;DHT22;18963;51.504;5.316;2023-09-07T04:32:49;13.90;99.90
32522;DHT22;18963;51.504;5.316;2023-09-07T04:35:15;13.90;99.90
32522;DHT22;18963;51.504;5.316;2023-09-07T04:37:44;13.90;99.90
32522;DHT22;18963;51.504;5.316;2023-09-07T04:40:10;13.80;99.90
32522;DHT22;18963;51.504;5.316;2023-09-07T04:42:37;13.80;99.90
32522;DHT22;18963;51.504;5.316;2023-09-07T04:45:05;13.80;99.90
32522;DHT22;18963;51.504;5.316;2023-09-07T04:47:30;13.80;99.90
32522;DHT22;18963;51.504;5.316;2023-09-07T04:49:56;13.90;99.90
32522;DHT22;18963;51.504;5.316;2023-09-07T04:52:21;13.90;99.90
32522;DHT22;18963;51.504;5.316;2023-09-07T04:54:47;13.90;99.90
32522;DHT22;18963;51.504;5.316;2023-09-07T04:57:15;13.90;99.90
32522;DHT22;18963;51.504;5.316;2023-09-07T04:59:41;13.90;99.90
32522;DHT22;18963;51.504;5.316;2023-09-07T05:02:07;13.90;99.90
32522;DHT22;18963;51.504;5.316;2023-09-07T05:04:32;13.90;99.90
32522;DHT22;18963;51.504;5.316;2023-09-07T05:06:58;14.00;99.90
32522;DHT22;18963;51.504;5.316;2023-09-07T05:09:23;14.00;99.90
32522;DHT22;18963;51.504;5.316;2023-09-07T05:11:50;14.00;99.90
32522;DHT22;18963;51.504;5.316;2023-09-07T05:14:16;14.10;99.90
32522;DHT22;18963;51.504;5.316;2023-09-07T05:16:44;14.10;99.90
32522;DHT22;18963;51.504;5.316;2023-09-07T05:19:10;14.20;99.90
32522;DHT22;18963;51.504;5.316;2023-09-07T05:21:35;14.20;99.90
32522;DHT22;18963;51.504;5.316;2023-09-07T05:24:01;14.20;99.90
32522;DHT22;18963;51.504;5.316;2023-09-07T05:26:26;14.10;99.90
32522;DHT22;18963;51.504;5.316;2023-09-07T05:28:52;14.20;99.90
32522;DHT22;18963;51.504;5.316;2023-09-07T05:31:17;14.20;99.90
32522;DHT22;18963;51.504;5.316;2023-09-07T05:33:43;14.20;99.90
32522;DHT22;18963;51.504;5.316;2023-09-07T05:36:09;14.20;99.90
32522;DHT22;18963;51.504;5.316;2023-09-07T05:38:34;14.30;99.90
32522;DHT22;18963;51.504;5.316;2023-09-07T05:41:00;14.40;99.90
32522;DHT22;18963;51.504;5.316;2023-09-07T05:43:25;14.40;99.90
32522;DHT22;18963;51.504;5.316;2023-09-07T05:45:51;14.60;99.90
32522;DHT22;18963;51.504;5.316;2023-09-07T05:48:16;14.60;99.90
32522;DHT22;18963;51.504;5.316;2023-09-07T05:50:42;14.80;99.90
32522;DHT22;18963;51.504;5.316;2023-09-07T05:53:08;14.90;99.90
32522;DHT22;18963;51.504;5.316;2023-09-07T05:55:34;15.10;99.90
32522;DHT22;18963;51.504;5.316;2023-09-07T05:58:03;15.30;99.90
32522;DHT22;18963;51.504;5.316;2023-09-07T06:00:29;15.60;99.90
32522;DHT22;18963;51.504;5.316;2023-09-07T06:02:54;15.80;99.90
32522;DHT22;18963;51.504;5.316;2023-09-07T06:05:20;16.10;99.90
32522;DHT22;18963;51.504;5.316;2023-09-07T06:07:46;16.30;99.90
32522;DHT22;18963;51.504;5.316;2023-09-07T06:10:11;16.50;99.90
32522;DHT22;18963;51.504;5.316;2023-09-07T06:12:37;16.70;99.90
32522;DHT22;18963;51.504;5.316;2023-09-07T06:15:03;16.90;99.90
32522;DHT22;18963;51.504;5.316;2023-09-07T06:17:29;17.10;99.90
32522;DHT22;18963;51.504;5.316;2023-09-07T06:19:55;17.30;99.90
32522;DHT22;18963;51.504;5.316;2023-09-07T06:22:21;17.50;99.90
32522;DHT22;18963;51.504;5.316;2023-09-07T06:24:46;17.70;99.90
32522;DHT22;18963;51.504;5.316;2023-09-07T06:27:12;17.90;99.90
32522;DHT22;18963;51.504;5.316;2023-09-07T06:29:38;18.10;99.90
32522;DHT22;18963;51.504;5.316;2023-09-07T06:32:04;18.30;99.90
32522;DHT22;18963;51.504;5.316;2023-09-07T06:34:29;18.50;99.90
32522;DHT22;18963;51.504;5.316;2023-09-07T06:36:55;18.80;99.90
32522;DHT22;18963;51.504;5.316;2023-09-07T06:39:20;19.00;99.90
32522;DHT22;18963;51.504;5.316;2023-09-07T06:41:46;19.20;99.90
32522;DHT22;18963;51.504;5.316;2023-09-07T06:44:12;19.30;99.90
32522;DHT22;18963;51.504;5.316;2023-09-07T06:46:37;19.50;99.90
32522;DHT22;18963;51.504;5.316;2023-09-07T06:49:03;19.70;99.90
32522;DHT22;18963;51.504;5.316;2023-09-07T06:51:30;19.90;99.90
32522;DHT22;18963;51.504;5.316;2023-09-07T06:53:56;20.10;99.90
32522;DHT22;18963;51.504;5.316;2023-09-07T06:56:22;20.30;99.90
32522;DHT22;18963;51.504;5.316;2023-09-07T06:58:47;20.50;99.90
32522;DHT22;18963;51.504;5.316;2023-09-07T07:01:13;20.70;99.90
32522;DHT22;18963;51.504;5.316;2023-09-07T07:03:38;20.90;99.90
32522;DHT22;18963;51.504;5.316;2023-09-07T07:06:04;21.10;99.90
32522;DHT22;18963;51.504;5.316;2023-09-07T07:08:29;21.30;99.90
32522;DHT22;18963;51.504;5.316;2023-09-07T07:10:55;21.60;99.90
32522;DHT22;18963;51.504;5.316;2023-09-07T07:13:20;21.70;99.90
32522;DHT22;18963;51.504;5.316;2023-09-07T07:15:46;22.00;99.90
32522;DHT22;18963;51.504;5.316;2023-09-07T07:18:11;22.20;99.90
32522;DHT22;18963;51.504;5.316;2023-09-07T07:20:38;22.40;99.90
32522;DHT22;18963;51.504;5.316;2023-09-07T07:23:04;22.50;99.90
32522;DHT22;18963;51.504;5.316;2023-09-07T07:25:31;22.60;99.90
32522;DHT22;18963;51.504;5.316;2023-09-07T07:27:59;22.70;99.90
32522;DHT22;18963;51.504;5.316;2023-09-07T07:30:27;22.90;99.90
32522;DHT22;18963;51.504;5.316;2023-09-07T07:32:53;23.10;99.90
32522;DHT22;18963;51.504;5.316;2023-09-07T07:35:19;23.30;99.90
32522;DHT22;18963;51.504;5.316;2023-09-07T07:37:44;23.60;99.90
32522;DHT22;18963;51.504;5.316;2023-09-07T07:40:10;23.70;99.90
32522;DHT22;18963;51.504;5.316;2023-09-07T07:42:36;23.90;99.90
32522;DHT22;18963;51.504;5.316;2023-09-07T07:45:01;24.00;99.90
32522;DHT22;18963;51.504;5.316;2023-09-07T07:47:27;24.00;99.90
32522;DHT22;18963;51.504;5.316;2023-09-07T07:49:53;24.20;99.90
32522;DHT22;18963;51.504;5.316;2023-09-07T07:52:18;24.20;99.90
32522;DHT22;18963;51.504;5.316;2023-09-07T07:54:44;24.40;99.90
32522;DHT22;18963;51.504;5.316;2023-09-07T07:57:09;24.40;99.90
32522;DHT22;18963;51.504;5.316;2023-09-07T07:59:36;24.50;99.90
32522;DHT22;18963;51.504;5.316;2023-09-07T08:02:01;24.60;99.90
32522;DHT22;18963;51.504;5.316;2023-09-07T08:04:27;24.80;99.90
32522;DHT22;18963;51.504;5.316;2023-09-07T08:06:53;24.90;99.90
32522;DHT22;18963;51.504;5.316;2023-09-07T08:09:23;25.00;99.90
32522;DHT22;18963;51.504;5.316;2023-09-07T08:11:49;25.20;99.90
32522;DHT22;18963;51.504;5.316;2023-09-07T08:14:14;25.40;99.00
32522;DHT22;18963;51.504;5.316;2023-09-07T08:16:40;25.50;98.80
32522;DHT22;18963;51.504;5.316;2023-09-07T08:19:05;25.50;98.10
32522;DHT22;18963;51.504;5.316;2023-09-07T08:21:31;25.60;98.60
32522;DHT22;18963;51.504;5.316;2023-09-07T08:23:56;25.90;98.90
32522;DHT22;18963;51.504;5.316;2023-09-07T08:26:22;26.00;97.60
32522;DHT22;18963;51.504;5.316;2023-09-07T08:28:47;26.00;97.00
32522;DHT22;18963;51.504;5.316;2023-09-07T08:31:13;26.20;97.00
32522;DHT22;18963;51.504;5.316;2023-09-07T08:33:46;26.50;97.80
32522;DHT22;18963;51.504;5.316;2023-09-07T08:36:11;26.80;96.50
32522;DHT22;18963;51.504;5.316;2023-09-07T08:38:37;27.10;95.70
32522;DHT22;18963;51.504;5.316;2023-09-07T08:41:03;27.20;95.00
32522;DHT22;18963;51.504;5.316;2023-09-07T08:43:33;27.30;94.50
32522;DHT22;18963;51.504;5.316;2023-09-07T08:46:14;27.50;94.20
32522;DHT22;18963;51.504;5.316;2023-09-07T08:48:44;27.70;93.60
32522;DHT22;18963;51.504;5.316;2023-09-07T08:51:12;28.00;93.20
32522;DHT22;18963;51.504;5.316;2023-09-07T08:53:39;27.90;91.90
32522;DHT22;18963;51.504;5.316;2023-09-07T08:56:06;27.90;92.30
32522;DHT22;18963;51.504;5.316;2023-09-07T08:58:35;27.70;91.30
32522;DHT22;18963;51.504;5.316;2023-09-07T09:01:01;27.80;91.80
32522;DHT22;18963;51.504;5.316;2023-09-07T09:03:27;27.90;90.90
32522;DHT22;18963;51.504;5.316;2023-09-07T09:05:55;27.90;91.10
32522;DHT22;18963;51.504;5.316;2023-09-07T09:08:21;28.10;91.80
32522;DHT22;18963;51.504;5.316;2023-09-07T09:10:58;28.20;91.10
32522;DHT22;18963;51.504;5.316;2023-09-07T09:13:29;28.40;91.10
32522;DHT22;18963;51.504;5.316;2023-09-07T09:15:54;28.50;90.30
32522;DHT22;18963;51.504;5.316;2023-09-07T09:18:20;28.70;88.40
32522;DHT22;18963;51.504;5.316;2023-09-07T09:20:45;28.80;88.30
32522;DHT22;18963;51.504;5.316;2023-09-07T09:23:12;28.90;86.50
32522;DHT22;18963;51.504;5.316;2023-09-07T09:25:41;28.90;86.90
32522;DHT22;18963;51.504;5.316;2023-09-07T09:28:09;29.00;87.90
32522;DHT22;18963;51.504;5.316;2023-09-07T09:30:36;29.30;88.00
32522;DHT22;18963;51.504;5.316;2023-09-07T09:33:02;29.40;85.10
32522;DHT22;18963;51.504;5.316;2023-09-07T09:35:28;29.60;86.30
32522;DHT22;18963;51.504;5.316;2023-09-07T09:37:55;29.90;84.80
32522;DHT22;18963;51.504;5.316;2023-09-07T09:40:21;29.80;80.70
32522;DHT22;18963;51.504;5.316;2023-09-07T09:42:46;30.10;83.00
32522;DHT22;18963;51.504;5.316;2023-09-07T09:45:13;30.30;81.10
32522;DHT22;18963;51.504;5.316;2023-09-07T09:47:41;30.50;82.10
32522;DHT22;18963;51.504;5.316;2023-09-07T09:50:09;30.80;81.90
32522;DHT22;18963;51.504;5.316;2023-09-07T09:52:35;30.80;79.00
32522;DHT22;18963;51.504;5.316;2023-09-07T09:55:06;30.80;79.20
32522;DHT22;18963;51.504;5.316;2023-09-07T09:57:34;30.80;79.60
32522;DHT22;18963;51.504;5.316;2023-09-07T09:59:59;30.90;80.10
32522;DHT22;18963;51.504;5.316;2023-09-07T10:02:30;31.20;77.30
32522;DHT22;18963;51.504;5.316;2023-09-07T10:04:55;31.10;76.50
32522;DHT22;18963;51.504;5.316;2023-09-07T10:07:39;31.20;78.90
32522;DHT22;18963;51.504;5.316;2023-09-07T10:10:10;31.40;77.60
32522;DHT22;18963;51.504;5.316;2023-09-07T10:12:52;31.80;76.30
32522;DHT22;18963;51.504;5.316;2023-09-07T10:15:22;32.10;74.00
32522;DHT22;18963;51.504;5.316;2023-09-07T10:17:48;32.20;72.50
32522;DHT22;18963;51.504;5.316;2023-09-07T10:20:19;32.30;72.80
32522;DHT22;18963;51.504;5.316;2023-09-07T10:22:48;32.20;72.00
32522;DHT22;18963;51.504;5.316;2023-09-07T10:25:21;32.20;72.40
32522;DHT22;18963;51.504;5.316;2023-09-07T10:27:47;32.30;74.10
32522;DHT22;18963;51.504;5.316;2023-09-07T10:30:13;32.60;68.80
32522;DHT22;18963;51.504;5.316;2023-09-07T10:32:39;32.70;67.90
32522;DHT22;18963;51.504;5.316;2023-09-07T10:35:19;32.50;69.30
32522;DHT22;18963;51.504;5.316;2023-09-07T10:37:45;32.50;66.60
32522;DHT22;18963;51.504;5.316;2023-09-07T10:40:19;32.50;67.40
32522;DHT22;18963;51.504;5.316;2023-09-07T10:42:45;32.60;68.40
32522;DHT22;18963;51.504;5.316;2023-09-07T10:45:12;32.70;66.10
32522;DHT22;18963;51.504;5.316;2023-09-07T10:47:43;32.50;65.90
32522;DHT22;18963;51.504;5.316;2023-09-07T10:50:12;32.80;67.20
32522;DHT22;18963;51.504;5.316;2023-09-07T10:52:42;33.10;66.00
32522;DHT22;18963;51.504;5.316;2023-09-07T10:55:08;33.20;63.10
32522;DHT22;18963;51.504;5.316;2023-09-07T10:57:45;33.30;65.10
32522;DHT22;18963;51.504;5.316;2023-09-07T11:00:12;33.70;64.70
32522;DHT22;18963;51.504;5.316;2023-09-07T11:02:39;34.00;62.90
32522;DHT22;18963;51.504;5.316;2023-09-07T11:05:05;34.40;59.60
32522;DHT22;18963;51.504;5.316;2023-09-07T11:07:31;34.30;60.40
32522;DHT22;18963;51.504;5.316;2023-09-07T11:09:57;34.50;60.80
32522;DHT22;18963;51.504;5.316;2023-09-07T11:12:22;34.70;59.00
32522;DHT22;18963;51.504;5.316;2023-09-07T11:14:48;34.70;58.80
32522;DHT22;18963;51.504;5.316;2023-09-07T11:17:14;35.00;59.60
32522;DHT22;18963;51.504;5.316;2023-09-07T11:19:41;35.20;59.20
32522;DHT22;18963;51.504;5.316;2023-09-07T11:22:09;35.30;58.10
32522;DHT22;18963;51.504;5.316;2023-09-07T11:24:35;35.50;57.90
32522;DHT22;18963;51.504;5.316;2023-09-07T11:27:01;35.60;56.50
32522;DHT22;18963;51.504;5.316;2023-09-07T11:29:31;35.60;57.00
32522;DHT22;18963;51.504;5.316;2023-09-07T11:32:06;35.40;56.10
32522;DHT22;18963;51.504;5.316;2023-09-07T11:34:32;35.40;56.20
32522;DHT22;18963;51.504;5.316;2023-09-07T11:36:57;35.10;55.60
32522;DHT22;18963;51.504;5.316;2023-09-07T11:39:23;35.20;56.50
32522;DHT22;18963;51.504;5.316;2023-09-07T11:41:48;35.10;56.50
32522;DHT22;18963;51.504;5.316;2023-09-07T11:44:14;35.30;55.80
32522;DHT22;18963;51.504;5.316;2023-09-07T11:46:40;35.60;57.20
32522;DHT22;18963;51.504;5.316;2023-09-07T11:49:05;36.20;56.40
32522;DHT22;18963;51.504;5.316;2023-09-07T11:51:31;36.90;54.80
32522;DHT22;18963;51.504;5.316;2023-09-07T11:53:57;36.90;53.20
32522;DHT22;18963;51.504;5.316;2023-09-07T11:56:22;37.10;52.40
32522;DHT22;18963;51.504;5.316;2023-09-07T11:58:48;36.70;52.60
32522;DHT22;18963;51.504;5.316;2023-09-07T12:01:13;37.10;52.40
32522;DHT22;18963;51.504;5.316;2023-09-07T12:03:42;37.20;52.70
32522;DHT22;18963;51.504;5.316;2023-09-07T12:06:08;37.60;52.20
32522;DHT22;18963;51.504;5.316;2023-09-07T12:08:34;38.20;51.20
32522;DHT22;18963;51.504;5.316;2023-09-07T12:11:00;38.50;50.80
32522;DHT22;18963;51.504;5.316;2023-09-07T12:13:25;38.10;49.90
32522;DHT22;18963;51.504;5.316;2023-09-07T12:15:51;38.30;49.60
32522;DHT22;18963;51.504;5.316;2023-09-07T12:18:17;38.20;50.60
32522;DHT22;18963;51.504;5.316;2023-09-07T12:20:43;37.70;50.20
32522;DHT22;18963;51.504;5.316;2023-09-07T12:23:10;37.60;49.50
32522;DHT22;18963;51.504;5.316;2023-09-07T12:25:36;37.00;50.60
32522;DHT22;18963;51.504;5.316;2023-09-07T12:28:02;36.50;50.90
32522;DHT22;18963;51.504;5.316;2023-09-07T12:30:28;35.60;51.30
32522;DHT22;18963;51.504;5.316;2023-09-07T12:32:54;34.90;52.40
32522;DHT22;18963;51.504;5.316;2023-09-07T12:35:19;34.30;52.90
32522;DHT22;18963;51.504;5.316;2023-09-07T12:37:46;33.90;54.00
32522;DHT22;18963;51.504;5.316;2023-09-07T12:40:12;33.60;54.00
32522;DHT22;18963;51.504;5.316;2023-09-07T12:42:45;33.30;54.40
32522;DHT22;18963;51.504;5.316;2023-09-07T12:45:12;33.00;55.10
32522;DHT22;18963;51.504;5.316;2023-09-07T12:47:38;32.60;55.70
32522;DHT22;18963;51.504;5.316;2023-09-07T12:50:04;32.30;55.40
32522;DHT22;18963;51.504;5.316;2023-09-07T12:52:30;31.80;56.50
32522;DHT22;18963;51.504;5.316;2023-09-07T12:54:56;31.70;57.40
32522;DHT22;18963;51.504;5.316;2023-09-07T12:57:22;31.60;57.30
32522;DHT22;18963;51.504;5.316;2023-09-07T12:59:47;31.40;56.80
32522;DHT22;18963;51.504;5.316;2023-09-07T13:02:13;31.30;58.80
32522;DHT22;18963;51.504;5.316;2023-09-07T13:04:38;31.30;58.30
32522;DHT22;18963;51.504;5.316;2023-09-07T13:07:03;31.30;58.00
32522;DHT22;18963;51.504;5.316;2023-09-07T13:09:29;31.30;58.90
32522;DHT22;18963;51.504;5.316;2023-09-07T13:11:54;31.20;58.10
32522;DHT22;18963;51.504;5.316;2023-09-07T13:14:20;31.10;58.70
32522;DHT22;18963;51.504;5.316;2023-09-07T13:16:45;31.00;58.20
32522;DHT22;18963;51.504;5.316;2023-09-07T13:19:11;30.80;58.80
32522;DHT22;18963;51.504;5.316;2023-09-07T13:21:37;30.70;58.70
32522;DHT22;18963;51.504;5.316;2023-09-07T13:24:03;30.50;59.40
32522;DHT22;18963;51.504;5.316;2023-09-07T13:26:29;30.40;59.10
32522;DHT22;18963;51.504;5.316;2023-09-07T13:28:54;30.30;61.80
32522;DHT22;18963;51.504;5.316;2023-09-07T13:31:20;30.20;60.50
32522;DHT22;18963;51.504;5.316;2023-09-07T13:33:45;30.10;59.30
32522;DHT22;18963;51.504;5.316;2023-09-07T13:36:11;30.00;59.80
32522;DHT22;18963;51.504;5.316;2023-09-07T13:38:36;29.90;60.50
32522;DHT22;18963;51.504;5.316;2023-09-07T13:41:02;29.90;60.90
32522;DHT22;18963;51.504;5.316;2023-09-07T13:43:27;29.80;60.10
32522;DHT22;18963;51.504;5.316;2023-09-07T13:45:53;29.80;61.00
32522;DHT22;18963;51.504;5.316;2023-09-07T13:48:19;29.70;64.10
32522;DHT22;18963;51.504;5.316;2023-09-07T13:50:44;29.70;61.60
32522;DHT22;18963;51.504;5.316;2023-09-07T13:53:09;29.70;62.00
32522;DHT22;18963;51.504;5.316;2023-09-07T13:55:35;29.60;61.60
32522;DHT22;18963;51.504;5.316;2023-09-07T13:58:01;29.50;61.20
32522;DHT22;18963;51.504;5.316;2023-09-07T14:00:26;29.50;62.80
32522;DHT22;18963;51.504;5.316;2023-09-07T14:02:52;29.50;64.60
32522;DHT22;18963;51.504;5.316;2023-09-07T14:05:18;29.40;61.90
32522;DHT22;18963;51.504;5.316;2023-09-07T14:07:43;29.50;64.00
32522;DHT22;18963;51.504;5.316;2023-09-07T14:10:09;29.50;64.60
32522;DHT22;18963;51.504;5.316;2023-09-07T14:12:35;29.40;64.10
32522;DHT22;18963;51.504;5.316;2023-09-07T14:15:00;29.40;62.70
32522;DHT22;18963;51.504;5.316;2023-09-07T14:17:26;29.40;62.30
32522;DHT22;18963;51.504;5.316;2023-09-07T14:19:51;29.40;63.40
32522;DHT22;18963;51.504;5.316;2023-09-07T14:22:17;29.30;64.50
32522;DHT22;18963;51.504;5.316;2023-09-07T14:24:42;29.20;64.80
32522;DHT22;18963;51.504;5.316;2023-09-07T14:27:08;29.30;65.80
32522;DHT22;18963;51.504;5.316;2023-09-07T14:29:35;29.20;65.20
32522;DHT22;18963;51.504;5.316;2023-09-07T14:32:00;29.30;65.50
32522;DHT22;18963;51.504;5.316;2023-09-07T14:34:26;29.30;64.60
32522;DHT22;18963;51.504;5.316;2023-09-07T14:36:51;29.30;65.20
32522;DHT22;18963;51.504;5.316;2023-09-07T14:39:17;29.30;65.10
32522;DHT22;18963;51.504;5.316;2023-09-07T14:41:48;29.30;64.70
32522;DHT22;18963;51.504;5.316;2023-09-07T14:44:14;29.20;64.70
32522;DHT22;18963;51.504;5.316;2023-09-07T14:46:40;29.30;63.70
32522;DHT22;18963;51.504;5.316;2023-09-07T14:49:05;29.30;62.90
32522;DHT22;18963;51.504;5.316;2023-09-07T14:51:31;29.20;63.60
32522;DHT22;18963;51.504;5.316;2023-09-07T14:53:56;29.20;64.50
32522;DHT22;18963;51.504;5.316;2023-09-07T14:56:22;29.20;65.00
32522;DHT22;18963;51.504;5.316;2023-09-07T14:58:48;29.10;63.70
32522;DHT22;18963;51.504;5.316;2023-09-07T15:01:13;29.20;64.70
32522;DHT22;18963;51.504;5.316;2023-09-07T15:03:39;29.20;65.80
32522;DHT22;18963;51.504;5.316;2023-09-07T15:06:06;29.20;67.70
32522;DHT22;18963;51.504;5.316;2023-09-07T15:08:32;29.20;66.30
32522;DHT22;18963;51.504;5.316;2023-09-07T15:10:58;29.20;66.70
32522;DHT22;18963;51.504;5.316;2023-09-07T15:13:23;29.20;66.00
32522;DHT22;18963;51.504;5.316;2023-09-07T15:15:49;29.20;64.80
32522;DHT22;18963;51.504;5.316;2023-09-07T15:18:15;29.20;64.40
32522;DHT22;18963;51.504;5.316;2023-09-07T15:20:40;29.20;64.40
32522;DHT22;18963;51.504;5.316;2023-09-07T15:23:06;29.20;64.50
32522;DHT22;18963;51.504;5.316;2023-09-07T15:25:31;29.20;64.60